Time;durP1;ratioP1;P1;durP2;ratioP2;P2;SDS_P1;SDS_P2;PMS_P1;PMS_P2;Temp;Humidity;BMP_temperature;BMP_pressure;BME280_temperature;BME280_humidity;BME280_pressure;Samples;Min_cycle;Max_cycle;Signal;HPM_P1;HPM_P2
2021/07/11 00:00:52;;;;;;;6.90;1.20;;;20.70;99.90;;;;;;4979179;28;20378;-77
2021/07/11 00:03:17;;;;;;;1.90;1.80;;;20.70;99.90;;;;;;4949755;28;20319;-77
2021/07/11 00:05:43;;;;;;;2.10;1.53;;;20.60;99.90;;;;;;4955658;28;20234;-77
2021/07/11 00:08:09;;;;;;;2.13;1.93;;;20.60;99.90;;;;;;4962164;28;20742;-77
2021/07/11 00:10:34;;;;;;;1.33;1.23;;;20.50;99.90;;;;;;4948600;28;20627;-77
2021/07/11 00:13:00;;;;;;;1.80;1.70;;;20.50;99.90;;;;;;4951533;28;20220;-77
2021/07/11 00:15:27;;;;;;;1.30;1.20;;;20.50;99.90;;;;;;4954153;28;20657;-77
2021/07/11 00:17:54;;;;;;;1.70;1.50;;;20.40;99.90;;;;;;4958564;28;20265;-77
2021/07/11 00:20:21;;;;;;;1.60;1.50;;;20.30;99.90;;;;;;4957900;28;20457;-77
2021/07/11 00:22:47;;;;;;;4.17;2.97;;;20.30;99.90;;;;;;4961475;28;20481;-77
2021/07/11 00:25:14;;;;;;;3.00;1.97;;;20.20;99.90;;;;;;4947584;28;20458;-77
2021/07/11 00:27:41;;;;;;;2.10;1.90;;;20.10;99.90;;;;;;4948718;28;20222;-77
2021/07/11 00:30:10;;;;;;;1.90;1.80;;;20.10;99.90;;;;;;4948797;28;20453;-77
2021/07/11 00:32:37;;;;;;;1.60;1.50;;;20.20;99.90;;;;;;4957997;28;20454;-77
2021/07/11 00:35:05;;;;;;;2.00;1.80;;;20.20;99.90;;;;;;4958670;28;21043;-77
2021/07/11 00:37:31;;;;;;;1.60;1.50;;;20.10;99.90;;;;;;4958658;28;20883;-77
2021/07/11 00:39:57;;;;;;;2.70;2.50;;;20.10;99.90;;;;;;4941948;28;20469;-77
2021/07/11 00:42:25;;;;;;;2.93;2.30;;;20.00;99.90;;;;;;4944020;28;20249;-77
2021/07/11 00:44:51;;;;;;;2.47;2.27;;;20.00;99.90;;;;;;4950649;28;20912;-77
2021/07/11 00:47:18;;;;;;;1.87;1.77;;;20.00;99.90;;;;;;4960011;28;20216;-77
2021/07/11 00:49:46;;;;;;;2.03;1.90;;;20.00;99.90;;;;;;4976097;28;20476;-77
2021/07/11 00:52:14;;;;;;;2.70;2.00;;;19.90;99.90;;;;;;4941455;28;20453;-77
2021/07/11 00:54:42;;;;;;;2.50;2.13;;;19.90;99.90;;;;;;4958516;28;20449;-77
2021/07/11 00:57:11;;;;;;;3.23;1.83;;;19.90;99.90;;;;;;4944864;28;20846;-77
2021/07/11 00:59:39;;;;;;;2.13;2.00;;;20.00;99.90;;;;;;4965497;28;20449;-77
2021/07/11 01:02:18;;;;;;;2.13;2.00;;;20.00;99.90;;;;;;4946205;28;20449;-77
2021/07/11 01:04:52;;;;;;;2.40;2.20;;;20.00;99.90;;;;;;4976929;28;20457;-78
2021/07/11 01:07:37;;;;;;;1.90;1.70;;;20.00;99.90;;;;;;4946056;28;20495;-78
2021/07/11 01:10:09;;;;;;;2.13;1.93;;;20.00;99.90;;;;;;4978732;28;20456;-78
2021/07/11 01:12:43;;;;;;;1.80;1.70;;;20.00;99.90;;;;;;4966388;28;20453;-78
2021/07/11 01:15:10;;;;;;;1.93;1.83;;;19.90;99.90;;;;;;4972563;28;20460;-78
2021/07/11 01:17:40;;;;;;;1.60;1.50;;;19.90;99.90;;;;;;4979208;28;20987;-78
2021/07/11 01:20:18;;;;;;;1.87;1.77;;;19.90;99.90;;;;;;4963354;28;20508;-78
2021/07/11 01:22:48;;;;;;;1.97;1.77;;;19.80;99.90;;;;;;4978301;28;20465;-78
2021/07/11 01:25:48;;;;;;;2.03;1.73;;;19.90;99.90;;;;;;4968925;28;20990;-78
2021/07/11 01:28:18;;;;;;;1.77;1.67;;;19.90;99.90;;;;;;4955594;28;20464;-78
2021/07/11 01:30:49;;;;;;;2.40;1.50;;;19.90;99.90;;;;;;4946278;28;20509;-78
2021/07/11 01:33:18;;;;;;;2.20;1.60;;;19.90;99.90;;;;;;4957626;28;20454;-78
2021/07/11 01:35:45;;;;;;;2.33;2.10;;;19.90;99.90;;;;;;4958881;28;20509;-78
2021/07/11 01:38:12;;;;;;;8.87;2.17;;;19.90;99.90;;;;;;4978014;28;20516;-78
2021/07/11 01:40:41;;;;;;;3.10;2.90;;;19.90;99.90;;;;;;4962253;28;20457;-78
2021/07/11 01:43:08;;;;;;;2.87;2.30;;;19.90;99.90;;;;;;4954160;28;20461;-78
2021/07/11 01:45:37;;;;;;;3.63;2.27;;;19.90;99.90;;;;;;4979717;28;20507;-78
2021/07/11 01:48:05;;;;;;;2.37;2.17;;;19.90;99.90;;;;;;4973583;28;20460;-78
2021/07/11 01:50:32;;;;;;;2.67;1.93;;;19.90;99.90;;;;;;4951006;28;20460;-77
2021/07/11 01:52:57;;;;;;;2.60;2.40;;;19.90;99.90;;;;;;4950204;28;20521;-78
2021/07/11 01:55:27;;;;;;;2.63;2.43;;;19.80;99.90;;;;;;4946748;28;20457;-78
2021/07/11 01:57:53;;;;;;;2.30;2.10;;;19.70;99.90;;;;;;4951991;28;20536;-78
2021/07/11 02:00:20;;;;;;;4.10;2.50;;;19.70;99.90;;;;;;4945645;28;20460;-78
2021/07/11 02:02:49;;;;;;;3.03;2.80;;;19.70;99.90;;;;;;4962671;28;20461;-78
2021/07/11 02:05:25;;;;;;;4.53;2.30;;;19.70;99.90;;;;;;4970198;28;20912;-78
2021/07/11 02:07:54;;;;;;;4.03;2.47;;;19.70;99.90;;;;;;4948297;28;20461;-78
2021/07/11 02:10:20;;;;;;;2.90;2.20;;;19.70;99.90;;;;;;4944935;28;20460;-78
2021/07/11 02:13:01;;;;;;;3.17;2.87;;;19.70;99.90;;;;;;4966280;28;20240;-78
2021/07/11 02:15:29;;;;;;;3.13;2.83;;;19.70;99.90;;;;;;4941854;28;20454;-77
2021/07/11 02:17:59;;;;;;;3.00;2.37;;;19.60;99.90;;;;;;4938855;28;20527;-78
2021/07/11 02:20:46;;;;;;;2.57;2.37;;;19.60;99.90;;;;;;4947206;28;20452;-77
2021/07/11 02:23:20;;;;;;;6.33;3.20;;;19.50;99.90;;;;;;4956979;28;20492;-78
2021/07/11 02:25:49;;;;;;;3.37;3.07;;;19.50;99.90;;;;;;4966088;28;20874;-78
2021/07/11 02:28:17;;;;;;;2.80;2.60;;;19.50;99.90;;;;;;4953983;28;20538;-78
2021/07/11 02:30:57;;;;;;;2.37;2.17;;;19.50;99.90;;;;;;4937603;28;20481;-77
2021/07/11 02:33:36;;;;;;;4.27;3.67;;;19.60;99.90;;;;;;4942550;28;20469;-77
2021/07/11 02:36:09;;;;;;;2.60;2.40;;;19.60;99.90;;;;;;4957267;28;20523;-78
2021/07/11 02:38:49;;;;;;;2.67;2.47;;;19.50;99.90;;;;;;4937683;28;20462;-77
2021/07/11 02:41:18;;;;;;;4.07;2.70;;;19.50;99.90;;;;;;4956675;28;20838;-77
2021/07/11 02:43:46;;;;;;;4.17;2.33;;;19.50;99.90;;;;;;4959626;28;20531;-78
2021/07/11 02:46:19;;;;;;;3.47;2.83;;;19.60;99.90;;;;;;4964817;28;20460;-77
2021/07/11 02:48:48;;;;;;;2.43;2.20;;;19.60;99.90;;;;;;4960597;28;20508;-77
2021/07/11 02:51:19;;;;;;;3.00;2.80;;;19.50;99.90;;;;;;4960981;28;20457;-78
2021/07/11 02:53:49;;;;;;;2.70;2.40;;;19.50;99.90;;;;;;4959642;28;20449;-77
2021/07/11 02:56:18;;;;;;;3.10;2.50;;;19.50;99.90;;;;;;4945479;28;20487;-78
2021/07/11 02:58:48;;;;;;;2.27;2.07;;;19.50;99.90;;;;;;4973118;28;20881;-77
2021/07/11 03:01:15;;;;;;;3.13;2.67;;;19.50;99.90;;;;;;4957034;28;20458;-77
2021/07/11 03:03:43;;;;;;;3.50;3.20;;;19.40;99.90;;;;;;4953869;28;20547;-77
2021/07/11 03:06:12;;;;;;;3.00;2.80;;;19.40;99.90;;;;;;4967481;28;20462;-77
2021/07/11 03:08:38;;;;;;;3.00;2.80;;;19.40;99.90;;;;;;4937166;28;20494;-78
2021/07/11 03:11:14;;;;;;;3.17;2.90;;;19.20;99.90;;;;;;4976425;28;20803;-78
2021/07/11 03:13:41;;;;;;;4.43;2.87;;;19.20;99.90;;;;;;4943350;28;20861;-78
2021/07/11 03:16:12;;;;;;;2.97;2.50;;;19.10;99.90;;;;;;4955173;28;20500;-77
2021/07/11 03:18:44;;;;;;;3.43;2.40;;;19.10;99.90;;;;;;4964056;28;20444;-77
2021/07/11 03:21:11;;;;;;;2.57;2.30;;;19.10;99.90;;;;;;4959476;28;20447;-77
2021/07/11 03:23:47;;;;;;;2.70;2.50;;;19.10;99.90;;;;;;4942064;28;20481;-77
2021/07/11 03:26:13;;;;;;;3.07;2.73;;;19.10;99.90;;;;;;4947263;28;20547;-77
2021/07/11 03:28:39;;;;;;;3.73;2.37;;;19.10;99.90;;;;;;4946975;28;20812;-77
2021/07/11 03:31:07;;;;;;;3.63;2.50;;;19.10;99.90;;;;;;4960360;28;20466;-77
2021/07/11 03:34:07;;;;;;;3.77;2.97;;;19.10;99.90;;;;;;4975146;28;20421;-77
2021/07/11 03:36:34;;;;;;;4.47;2.90;;;19.10;99.90;;;;;;4958705;28;20445;-77
2021/07/11 03:43:33;;;;;;;3.10;2.53;;;19.10;99.90;;;;;;4910574;29;21118;-77
2021/07/11 03:53:23;;;;;;;4.00;2.77;;;18.90;99.90;;;;;;5037695;23;20550;-77
2021/07/11 03:55:57;;;;;;;6.90;3.17;;;18.90;99.90;;;;;;5002904;28;20455;-77
2021/07/11 04:13:24;;;;;;;8.73;2.93;;;18.70;99.90;;;;;;5011167;28;20436;-77
2021/07/11 04:20:24;;;;;;;3.33;2.90;;;18.60;99.90;;;;;;5007839;28;20470;-77
2021/07/11 04:23:04;;;;;;;2.60;2.40;;;18.50;99.90;;;;;;5114691;23;20494;-77
2021/07/11 04:33:05;;;;;;;5.43;2.80;;;18.40;99.90;;;;;;4976981;28;20824;-77
2021/07/11 04:43:21;;;;;;;3.50;2.53;;;18.40;99.90;;;;;;5021558;23;20490;-77
2021/07/11 04:45:48;;;;;;;3.37;3.07;;;18.40;99.90;;;;;;4991345;28;21011;-77
2021/07/11 04:48:15;;;;;;;2.93;2.67;;;18.40;99.90;;;;;;5002513;28;20456;-77
2021/07/11 04:50:45;;;;;;;4.13;3.27;;;18.40;99.90;;;;;;5001604;28;20459;-77
2021/07/11 04:53:13;;;;;;;2.80;2.53;;;18.40;99.90;;;;;;5010904;28;20466;-77
2021/07/11 04:55:39;;;;;;;8.20;2.97;;;18.40;99.90;;;;;;5007674;28;20792;-77
2021/07/11 04:58:05;;;;;;;5.87;3.13;;;18.40;99.90;;;;;;4976630;28;20471;-77
2021/07/11 05:03:48;;;;;;;3.83;3.20;;;18.30;99.90;;;;;;4974161;28;20232;-77
2021/07/11 05:06:14;;;;;;;5.57;4.77;;;18.30;99.90;;;;;;4973128;28;20430;-77
2021/07/11 05:08:43;;;;;;;6.03;3.07;;;18.20;99.90;;;;;;4953816;28;20438;-76
2021/07/11 05:14:09;;;;;;;4.23;2.90;;;18.20;99.90;;;;;;5064422;27;21082;-77
2021/07/11 05:16:35;;;;;;;3.33;2.80;;;18.20;99.90;;;;;;5010042;28;20511;-77
2021/07/11 05:19:02;;;;;;;3.57;3.17;;;18.10;99.90;;;;;;4978629;28;20306;-77
2021/07/11 05:24:59;;;;;;;2.93;2.63;;;18.10;99.90;;;;;;5046818;28;20491;-77
2021/07/11 05:31:24;;;;;;;3.13;2.83;;;18.00;99.90;;;;;;5050021;28;21109;-77
2021/07/11 05:33:49;;;;;;;2.80;2.60;;;18.00;99.90;;;;;;5034570;28;20555;-77
2021/07/11 05:36:17;;;;;;;3.00;2.80;;;18.00;99.90;;;;;;5047250;28;20422;-77
2021/07/11 05:42:30;;;;;;;2.97;2.77;;;17.90;99.90;;;;;;5099119;22;20490;-77
2021/07/11 05:45:06;;;;;;;3.60;3.07;;;17.90;99.90;;;;;;5050110;28;20423;-77
2021/07/11 05:51:20;;;;;;;2.83;2.57;;;17.90;99.90;;;;;;5046716;28;20500;-77
2021/07/11 05:53:52;;;;;;;3.47;3.13;;;18.00;99.90;;;;;;5029940;28;20462;-77
2021/07/11 06:00:09;;;;;;;3.43;2.80;;;17.90;99.90;;;;;;5043858;28;20426;-77
2021/07/11 06:06:38;;;;;;;2.40;2.20;;;17.90;99.90;;;;;;5047665;28;20461;-77
2021/07/11 06:13:01;;;;;;;3.40;2.83;;;17.90;99.90;;;;;;5027440;28;20498;-77
2021/07/11 06:23:02;;;;;;;3.40;2.70;;;17.90;99.90;;;;;;5045858;28;20466;-77
2021/07/11 06:36:32;;;;;;;8.00;2.80;;;18.00;99.90;;;;;;4986673;28;20950;-77
2021/07/11 06:43:07;;;;;;;3.20;2.90;;;18.00;99.90;;;;;;5516736;22;20498;-77
2021/07/11 06:46:17;;;;;;;2.20;2.10;;;18.00;99.90;;;;;;4980206;28;20816;-77
2021/07/11 06:48:46;;;;;;;3.60;2.50;;;18.00;99.90;;;;;;4968800;28;20539;-77
2021/07/11 06:54:11;;;;;;;2.67;2.43;;;18.00;99.90;;;;;;4988764;28;20496;-77
2021/07/11 07:00:27;;;;;;;3.60;2.87;;;18.10;99.90;;;;;;4984171;28;20412;-77
2021/07/11 07:07:06;;;;;;;2.30;2.20;;;18.10;99.90;;;;;;5009599;28;20432;-77
2021/07/11 07:09:41;;;;;;;3.60;3.30;;;18.10;99.90;;;;;;4963824;28;20460;-77
2021/07/11 07:12:16;;;;;;;3.20;2.90;;;18.10;99.90;;;;;;5322238;23;20499;-77
2021/07/11 07:19:41;;;;;;;2.67;2.47;;;18.10;99.90;;;;;;4911269;29;20427;-77
2021/07/11 07:26:39;;;;;;;3.17;2.87;;;18.10;99.90;;;;;;4956280;28;20506;-79
2021/07/11 07:29:47;;;;;;;4.43;2.80;;;18.10;99.90;;;;;;4919966;28;20474;-79
2021/07/11 07:32:13;;;;;;;3.37;3.03;;;18.20;99.90;;;;;;4928993;29;20529;-79
2021/07/11 07:42:40;;;;;;;3.00;2.70;;;18.20;99.90;;;;;;5143870;23;20501;-79
2021/07/11 07:45:47;;;;;;;2.87;2.67;;;18.20;99.90;;;;;;4960205;28;20483;-79
2021/07/11 07:48:26;;;;;;;4.27;2.90;;;18.30;99.90;;;;;;4966690;28;20444;-79
2021/07/11 07:53:23;;;;;;;3.50;3.20;;;18.30;99.90;;;;;;4988305;28;20476;-79
2021/07/11 07:56:04;;;;;;;3.07;2.77;;;18.30;99.90;;;;;;4975453;28;20464;-79
2021/07/11 07:58:29;;;;;;;4.80;3.03;;;18.40;99.90;;;;;;4961908;28;20713;-79
2021/07/11 08:00:55;;;;;;;5.57;3.43;;;18.40;99.90;;;;;;4945904;28;20481;-79
2021/07/11 08:03:30;;;;;;;3.60;3.30;;;18.50;99.90;;;;;;4974815;28;20220;-79
2021/07/11 08:06:13;;;;;;;5.03;4.63;;;18.50;99.90;;;;;;4984853;28;20302;-79
2021/07/11 08:13:17;;;;;;;3.43;3.13;;;18.50;99.90;;;;;;5015195;28;20514;-79
2021/07/11 08:15:56;;;;;;;3.30;3.00;;;18.60;99.90;;;;;;4985321;28;20490;-79
2021/07/11 08:23:09;;;;;;;4.13;3.70;;;18.60;99.90;;;;;;4927620;29;20509;-79
2021/07/11 08:25:51;;;;;;;3.90;3.50;;;18.70;99.90;;;;;;4909891;29;20440;-79
2021/07/11 08:28:28;;;;;;;3.70;3.40;;;18.70;99.90;;;;;;4933266;29;20454;-79
2021/07/11 08:31:09;;;;;;;4.17;3.80;;;18.70;99.90;;;;;;4995774;28;20465;-79
2021/07/11 08:33:40;;;;;;;3.60;3.30;;;18.70;99.90;;;;;;4984985;28;20525;-79
2021/07/11 08:36:52;;;;;;;3.53;3.20;;;18.70;99.90;;;;;;4936175;28;20888;-79
2021/07/11 08:39:51;;;;;;;3.37;2.97;;;18.80;99.90;;;;;;4997594;28;20459;-78
2021/07/11 08:43:00;;;;;;;3.30;3.00;;;18.80;99.90;;;;;;5003964;28;20814;-78
2021/07/11 08:47:02;;;;;;;4.30;3.00;;;18.80;99.90;;;;;;5015830;28;20487;-78
2021/07/11 08:49:28;;;;;;;3.20;3.00;;;18.80;99.90;;;;;;4971793;28;20459;-78
2021/07/11 08:52:19;;;;;;;3.43;3.13;;;18.80;99.90;;;;;;4986174;28;20463;-78
2021/07/11 08:54:45;;;;;;;3.17;2.97;;;18.90;99.90;;;;;;4967937;28;20202;-78
2021/07/11 08:57:14;;;;;;;3.67;3.37;;;18.90;99.90;;;;;;4970905;28;20479;-78
2021/07/11 08:59:51;;;;;;;3.40;3.10;;;18.90;99.90;;;;;;4967506;28;20287;-78
2021/07/11 09:02:26;;;;;;;3.27;3.00;;;18.90;99.90;;;;;;4988586;28;20457;-78
2021/07/11 09:05:33;;;;;;;3.73;3.27;;;18.90;99.90;;;;;;4959739;28;20451;-78
2021/07/11 09:08:24;;;;;;;5.10;3.87;;;19.00;99.90;;;;;;4948644;28;20984;-78
2021/07/11 09:11:42;;;;;;;3.00;2.80;;;19.00;99.90;;;;;;4945548;28;20538;-78
2021/07/11 09:17:37;;;;;;;3.60;2.83;;;19.00;99.90;;;;;;4994570;28;20492;-79
2021/07/11 09:20:10;;;;;;;3.47;3.27;;;19.00;99.90;;;;;;4962899;28;20525;-79
2021/07/11 09:26:12;;;;;;;3.20;2.90;;;19.00;99.90;;;;;;4980758;28;20463;-79
2021/07/11 09:29:09;;;;;;;3.17;2.93;;;19.00;99.90;;;;;;4974288;28;20441;-79
2021/07/11 09:31:46;;;;;;;2.77;2.57;;;19.10;99.90;;;;;;4978234;28;20452;-79
2021/07/11 09:35:01;;;;;;;3.20;2.90;;;19.10;99.90;;;;;;4963427;28;20510;-79
2021/07/11 09:42:01;;;;;;;3.00;2.50;;;19.10;99.90;;;;;;4995304;28;20540;-79
2021/07/11 09:44:58;;;;;;;4.10;3.70;;;19.10;99.90;;;;;;4985435;28;20465;-79
2021/07/11 09:47:53;;;;;;;2.90;2.70;;;19.10;99.90;;;;;;5012686;28;20476;-78
2021/07/11 09:53:49;;;;;;;3.13;2.83;;;19.10;99.90;;;;;;4969499;28;20476;-78
2021/07/11 10:07:45;;;;;;;2.97;2.77;;;19.30;99.90;;;;;;4925571;28;20546;-80
2021/07/11 10:13:27;;;;;;;3.10;2.90;;;19.30;99.90;;;;;;5123779;22;20567;-78
2021/07/11 10:15:53;;;;;;;3.90;2.70;;;19.40;99.90;;;;;;4947211;28;20461;-78
2021/07/11 10:18:45;;;;;;;4.10;3.30;;;19.40;99.90;;;;;;4952206;28;20230;-78
2021/07/11 10:24:10;;;;;;;2.97;2.53;;;19.50;99.90;;;;;;5655675;22;20472;-77
2021/07/11 10:26:50;;;;;;;3.23;2.93;;;19.60;99.90;;;;;;4961795;28;20468;-79
2021/07/11 10:30:13;;;;;;;3.00;2.70;;;19.70;99.90;;;;;;4935221;29;20504;-79
2021/07/11 10:32:40;;;;;;;4.07;3.17;;;19.80;99.90;;;;;;4900336;28;20824;-77
2021/07/11 10:35:47;;;;;;;3.20;3.00;;;19.80;99.90;;;;;;4901201;29;20533;-77
2021/07/11 10:38:12;;;;;;;3.40;3.10;;;19.90;99.90;;;;;;4901671;29;20951;-77
2021/07/11 10:44:49;;;;;;;2.77;2.57;;;20.10;99.90;;;;;;4899516;29;20223;-77
2021/07/11 10:47:44;;;;;;;3.43;3.20;;;20.20;99.90;;;;;;4932762;28;20463;-77
2021/07/11 10:53:47;;;;;;;2.67;2.47;;;20.30;99.90;;;;;;4960442;28;20520;-78
2021/07/11 11:03:57;;;;;;;2.87;2.67;;;20.50;99.90;;;;;;5021414;28;20478;-77
2021/07/11 11:16:29;;;;;;;4.27;3.20;;;21.00;99.90;;;;;;4959098;28;20470;-77
2021/07/11 11:19:34;;;;;;;2.60;2.40;;;21.10;99.90;;;;;;4952253;28;20505;-77
2021/07/11 11:22:27;;;;;;;3.27;2.97;;;21.20;99.90;;;;;;4958116;28;21020;-77
2021/07/11 11:25:03;;;;;;;2.53;2.33;;;21.30;99.90;;;;;;4948299;28;20434;-77
2021/07/11 11:28:14;;;;;;;3.07;2.87;;;21.30;99.90;;;;;;4950109;28;20501;-77
2021/07/11 11:31:20;;;;;;;2.63;2.43;;;21.40;99.90;;;;;;4955059;28;20496;-77
2021/07/11 11:34:58;;;;;;;;;;;;;;;;;;;;;
2021/07/11 11:37:47;;;;;;;3.70;3.40;;;21.50;99.90;;;;;;4955400;28;20471;-77
2021/07/11 11:41:03;;;;;;;6.07;3.20;;;21.50;99.90;;;;;;4955134;28;20462;-77
2021/07/11 11:43:35;;;;;;;3.57;3.17;;;21.40;99.90;;;;;;4915235;28;20473;-77
2021/07/11 11:46:10;;;;;;;3.60;3.23;;;21.30;99.90;;;;;;4945831;28;20458;-77
2021/07/11 11:49:00;;;;;;;3.33;3.00;;;21.40;99.90;;;;;;4959317;28;20493;-77
2021/07/11 11:51:50;;;;;;;3.50;3.20;;;21.40;99.90;;;;;;4972701;28;20532;-77
2021/07/11 11:54:45;;;;;;;3.50;3.20;;;21.40;99.90;;;;;;4953316;28;20478;-77
2021/07/11 11:57:49;;;;;;;;;;;;;;;;;;;;;
2021/07/11 12:00:38;;;;;;;6.20;3.03;;;21.40;99.90;;;;;;4911969;28;20474;-76
2021/07/11 12:03:53;;;;;;;3.30;3.00;;;21.50;99.90;;;;;;4964646;28;21010;-77
2021/07/11 12:06:29;;;;;;;3.20;2.90;;;21.50;99.90;;;;;;4872970;28;20456;-77
2021/07/11 12:09:07;;;;;;;2.67;2.47;;;21.60;99.90;;;;;;4924831;28;20613;-77
2021/07/11 12:15:37;;;;;;;3.27;3.00;;;21.70;99.90;;;;;;4958169;28;20512;-77
2021/07/11 12:18:12;;;;;;;2.83;2.63;;;21.70;99.90;;;;;;4969509;28;20454;-77
2021/07/11 12:25:28;;;;;;;2.83;2.60;;;22.10;99.90;;;;;;4880362;29;20460;-77
2021/07/11 12:28:17;;;;;;;2.47;2.37;;;22.40;99.90;;;;;;4844851;29;20950;-77
2021/07/11 12:31:27;;;;;;;2.70;2.50;;;22.60;99.90;;;;;;4955056;28;20485;-77
2021/07/11 12:37:57;;;;;;;2.53;2.37;;;22.70;99.90;;;;;;4919076;28;20450;-78
2021/07/11 12:40:57;;;;;;;2.50;2.30;;;22.70;99.90;;;;;;4932389;28;20458;-77
2021/07/11 12:43:32;;;;;;;2.57;2.37;;;22.80;99.90;;;;;;4906858;28;20461;-79
2021/07/11 12:46:17;;;;;;;3.23;2.97;;;22.80;99.90;;;;;;4944236;28;20466;-79
2021/07/11 12:48:53;;;;;;;1.90;1.80;;;22.70;99.90;;;;;;4958797;28;20472;-79
2021/07/11 12:52:14;;;;;;;2.50;2.20;;;22.80;99.90;;;;;;4956913;28;20463;-78
2021/07/11 12:54:56;;;;;;;2.20;2.00;;;22.90;99.90;;;;;;4940396;28;20837;-79
2021/07/11 12:58:05;;;;;;;2.40;2.20;;;23.00;99.90;;;;;;4932643;28;20478;-79
2021/07/11 13:00:33;;;;;;;2.57;2.37;;;23.10;99.90;;;;;;4979784;28;20537;-79
2021/07/11 13:04:06;;;;;;;;;;;;;;;;;;;;;
2021/07/11 13:10:20;;;;;;;2.30;2.00;;;23.00;99.90;;;;;;4961553;28;20563;-79
2021/07/11 13:12:57;;;;;;;2.77;2.50;;;23.00;99.90;;;;;;4950477;28;20481;-80
2021/07/11 13:16:03;;;;;;;2.73;2.53;;;23.10;99.90;;;;;;4972057;28;20457;-79
2021/07/11 13:18:36;;;;;;;2.43;2.27;;;23.20;99.90;;;;;;4923383;28;20513;-79
2021/07/11 13:24:54;;;;;;;2.50;2.30;;;23.50;99.90;;;;;;4965737;28;20519;-79
2021/07/11 13:27:22;;;;;;;2.53;2.37;;;23.80;99.90;;;;;;4969547;28;20458;-80
2021/07/11 13:29:48;;;;;;;2.93;2.73;;;23.90;99.90;;;;;;4948844;28;20456;-80
2021/07/11 13:32:16;;;;;;;2.10;1.90;;;24.00;99.90;;;;;;4971715;28;20489;-79
2021/07/11 13:34:45;;;;;;;2.50;2.30;;;24.20;99.90;;;;;;4950589;28;21109;-80
2021/07/11 13:37:12;;;;;;;2.23;2.13;;;24.40;99.90;;;;;;4954336;28;20458;-79
2021/07/11 13:39:38;;;;;;;2.20;2.10;;;24.50;99.90;;;;;;4949622;28;20453;-79
2021/07/11 13:42:03;;;;;;;2.50;2.33;;;24.60;99.90;;;;;;4956554;28;20457;-80
2021/07/11 13:44:31;;;;;;;2.03;1.93;;;24.60;99.90;;;;;;4950982;28;20230;-79
2021/07/11 13:47:00;;;;;;;2.33;2.13;;;24.60;99.90;;;;;;4959283;28;20221;-79
2021/07/11 13:49:39;;;;;;;2.20;2.10;;;24.50;99.90;;;;;;4981445;28;20464;-80
2021/07/11 13:52:05;;;;;;;2.20;2.10;;;24.40;99.90;;;;;;4952808;28;20466;-79
2021/07/11 13:54:51;;;;;;;2.17;2.07;;;24.40;99.90;;;;;;4916182;28;20541;-80
2021/07/11 13:57:19;;;;;;;2.13;2.03;;;24.20;99.90;;;;;;4975297;28;20218;-79
2021/07/11 13:59:50;;;;;;;2.00;1.90;;;24.20;99.90;;;;;;4952911;28;20469;-79
2021/07/11 14:02:26;;;;;;;2.53;2.33;;;24.30;99.90;;;;;;4935944;28;20465;-80
2021/07/11 14:05:46;;;;;;;2.47;2.27;;;24.40;99.90;;;;;;4955366;28;20457;-80
2021/07/11 14:08:15;;;;;;;2.40;2.07;;;24.50;99.90;;;;;;4949298;28;20585;-79
2021/07/11 14:11:16;;;;;;;2.20;2.00;;;24.50;99.90;;;;;;4951883;28;20544;-80
2021/07/11 14:14:03;;;;;;;2.20;2.10;;;24.50;99.90;;;;;;4951215;28;20978;-80
2021/07/11 14:16:32;;;;;;;2.47;2.27;;;24.50;99.90;;;;;;4912227;28;20461;-79
2021/07/11 14:18:58;;;;;;;2.83;2.50;;;24.60;99.90;;;;;;4953341;28;20261;-79
2021/07/11 14:21:24;;;;;;;2.33;2.20;;;25.00;99.90;;;;;;5110413;23;20585;-78
2021/07/11 14:24:03;;;;;;;;;;;;;;;;;;;;;
2021/07/11 14:27:13;;;;;;;2.47;2.27;;;25.20;99.90;;;;;;4955349;28;20229;-79
2021/07/11 14:29:41;;;;;;;1.60;1.50;;;25.30;99.90;;;;;;4926258;28;20489;-78
2021/07/11 14:32:07;;;;;;;1.63;1.53;;;25.40;99.90;;;;;;4935524;28;20467;-79
2021/07/11 14:36:19;;;;;;;2.40;2.27;;;25.40;99.90;;;;;;4884706;28;20458;-78
2021/07/11 14:38:22;;;;;;;1.80;1.70;;;25.50;99.90;;;;;;4902418;29;20458;-78
2021/07/11 14:41:17;;;;;;;2.10;2.00;;;25.70;99.90;;;;;;4921649;23;20470;-78
2021/07/11 14:44:03;;;;;;;2.60;2.40;;;25.70;99.90;;;;;;4927305;28;20506;-79
2021/07/11 14:46:45;;;;;;;2.20;2.10;;;25.80;99.90;;;;;;4949103;28;20465;-79
2021/07/11 14:49:20;;;;;;;2.00;1.90;;;25.80;99.90;;;;;;4951264;28;20501;-78
2021/07/11 14:51:49;;;;;;;1.90;1.80;;;25.80;99.90;;;;;;5017319;23;20499;-78
2021/07/11 14:54:25;;;;;;;1.90;1.80;;;25.90;99.90;;;;;;4951713;28;20553;-80
2021/07/11 14:57:19;;;;;;;1.60;1.50;;;26.00;99.90;;;;;;4948357;28;20450;-78
2021/07/11 15:03:01;;;;;;;1.87;1.77;;;26.00;99.90;;;;;;4922231;28;20492;-79
2021/07/11 15:06:12;;;;;;;1.87;1.77;;;26.10;99.90;;;;;;4916314;28;20956;-79
2021/07/11 15:12:14;;;;;;;2.17;2.07;;;26.10;99.90;;;;;;4920452;29;20511;-79
2021/07/11 15:14:58;;;;;;;1.87;1.77;;;26.20;99.90;;;;;;4903005;29;20456;-78
2021/07/11 15:17:30;;;;;;;2.00;1.90;;;26.20;99.90;;;;;;4945165;28;21372;-78
2021/07/11 15:23:47;;;;;;;2.00;1.90;;;26.40;99.90;;;;;;4965597;28;20558;-79
2021/07/11 15:26:19;;;;;;;14.80;13.87;;;26.50;99.90;;;;;;4972311;28;20445;-79
2021/07/11 15:29:10;;;;;;;3.63;3.00;;;26.60;99.90;;;;;;4971544;28;20429;-79
2021/07/11 15:31:43;;;;;;;2.47;2.37;;;26.60;99.90;;;;;;4950426;28;20473;-78
2021/07/11 15:34:12;;;;;;;2.10;2.00;;;26.60;99.90;;;;;;4970525;28;20495;-78
2021/07/11 15:36:38;;;;;;;2.70;2.50;;;26.60;99.90;;;;;;4956297;28;20659;-79
2021/07/11 15:39:05;;;;;;;2.00;1.90;;;26.70;99.90;;;;;;4954770;28;20820;-79
2021/07/11 15:41:31;;;;;;;2.20;2.10;;;26.70;99.90;;;;;;4959721;28;20478;-78
2021/07/11 15:43:58;;;;;;;1.87;1.77;;;26.70;99.90;;;;;;4968719;28;20465;-78
2021/07/11 15:46:24;;;;;;;1.90;1.80;;;26.60;99.90;;;;;;4952899;28;20489;-78
2021/07/11 15:48:51;;;;;;;2.00;1.90;;;26.60;99.90;;;;;;4965238;28;20474;-78
2021/07/11 15:52:03;;;;;;;1.90;1.80;;;26.50;99.90;;;;;;4969994;28;20481;-78
2021/07/11 15:54:29;;;;;;;1.83;1.73;;;26.40;99.90;;;;;;4970774;28;20584;-78
2021/07/11 15:56:59;;;;;;;2.40;2.20;;;26.40;99.90;;;;;;4936315;28;20557;-78
2021/07/11 15:59:28;;;;;;;2.13;2.03;;;26.40;99.90;;;;;;4967299;28;20213;-78
2021/07/11 16:01:54;;;;;;;2.30;2.20;;;26.40;99.90;;;;;;4935999;28;20457;-78
2021/07/11 16:04:19;;;;;;;2.30;2.10;;;26.50;99.90;;;;;;4954507;28;20473;-78
2021/07/11 16:06:45;;;;;;;2.20;2.10;;;26.40;99.90;;;;;;4937440;28;20702;-78
2021/07/11 16:09:11;;;;;;;1.63;1.53;;;26.50;99.90;;;;;;4951733;28;20222;-78
2021/07/11 16:11:39;;;;;;;2.30;2.10;;;26.50;99.90;;;;;;4972770;23;20646;-78
2021/07/11 16:14:22;;;;;;;1.83;1.73;;;26.40;99.90;;;;;;4955757;28;20208;-78
2021/07/11 16:16:59;;;;;;;2.17;1.97;;;26.40;99.90;;;;;;4960656;28;20529;-78
2021/07/11 16:19:24;;;;;;;1.90;1.80;;;26.30;99.90;;;;;;4946675;28;20461;-78
2021/07/11 16:28:03;;;;;;;;;;;;;;;;;;;;;
2021/07/11 16:31:32;;;;;;;;;;;;;;;;;;;;;
2021/07/11 16:34:25;;;;;;;2.13;2.03;;;26.30;99.90;;;;;;4821041;29;20506;-79
2021/07/11 16:36:51;;;;;;;2.07;1.97;;;26.30;99.90;;;;;;4871373;29;20539;-79
2021/07/11 16:40:08;;;;;;;2.30;2.20;;;26.30;99.90;;;;;;4914304;29;20451;-78
2021/07/11 16:42:40;;;;;;;2.23;2.10;;;26.30;99.90;;;;;;4911910;29;20664;-78
2021/07/11 16:45:08;;;;;;;2.30;2.10;;;26.20;99.90;;;;;;4918629;28;20453;-80
2021/07/11 16:47:40;;;;;;;2.20;2.10;;;26.20;99.90;;;;;;4925395;28;20458;-79
2021/07/11 16:50:51;;;;;;;;;;;;;;;;;;;;;
2021/07/11 16:53:21;;;;;;;4.13;2.50;;;26.10;99.90;;;;;;4908450;29;20489;-78
2021/07/11 16:55:47;;;;;;;2.03;1.93;;;26.00;99.90;;;;;;4917310;29;20450;-78
2021/07/11 16:58:43;;;;;;;2.40;2.30;;;26.00;99.90;;;;;;4893155;28;21261;-79
2021/07/11 17:01:13;;;;;;;2.30;2.20;;;26.00;99.90;;;;;;4914214;29;20215;-78
2021/07/11 17:11:30;;;;;;;2.47;2.10;;;25.90;99.90;;;;;;4912128;29;21015;-78
2021/07/11 17:17:44;;;;;;;2.50;2.40;;;25.80;99.90;;;;;;4916265;28;20266;-78
2021/07/11 17:26:21;;;;;;;2.57;2.37;;;25.60;99.90;;;;;;4953034;28;20462;-78
2021/07/11 17:28:47;;;;;;;2.50;2.30;;;25.50;99.90;;;;;;4929795;28;20445;-78
2021/07/11 17:31:12;;;;;;;2.20;2.10;;;25.50;99.90;;;;;;4952448;28;20824;-78
2021/07/11 17:34:28;;;;;;;2.30;2.17;;;25.50;99.90;;;;;;4907382;28;20223;-78
2021/07/11 17:36:55;;;;;;;2.20;2.10;;;25.50;99.90;;;;;;4908337;28;20208;-78
2021/07/11 17:39:21;;;;;;;2.00;1.90;;;25.40;99.90;;;;;;4924630;28;20455;-78
2021/07/11 17:42:03;;;;;;;2.33;1.67;;;25.30;99.90;;;;;;4941048;28;20541;-78
2021/07/11 17:44:54;;;;;;;2.13;2.03;;;25.30;99.90;;;;;;4942565;28;20462;-78
2021/07/11 17:47:33;;;;;;;1.77;1.67;;;25.30;99.90;;;;;;4932310;29;20454;-78
2021/07/11 17:50:57;;;;;;;;;;;;;;;;;;;;;
2021/07/11 17:54:14;;;;;;;2.03;1.93;;;25.20;99.90;;;;;;4886936;29;20502;-79
2021/07/11 17:56:40;;;;;;;2.30;2.20;;;25.20;99.90;;;;;;4880754;29;20552;-78
2021/07/11 17:59:14;;;;;;;3.63;2.30;;;25.20;99.90;;;;;;4864427;29;20560;-78
2021/07/11 18:01:43;;;;;;;3.27;2.33;;;25.10;99.90;;;;;;4891793;28;20228;-78